sensor_id;sensor_type;location;lat;lon;timestamp;temperature;humidity
1107;DHT22;540;49.448;8.612;2023-04-03T00:00:46;5.80;84.30
1107;DHT22;540;49.448;8.612;2023-04-03T00:03:17;5.60;84.00
1107;DHT22;540;49.448;8.612;2023-04-03T00:05:46;5.60;83.90
1107;DHT22;540;49.448;8.612;2023-04-03T00:08:14;6.00;84.80
1107;DHT22;540;49.448;8.612;2023-04-03T00:10:42;5.50;85.00
1107;DHT22;540;49.448;8.612;2023-04-03T00:13:10;5.60;86.00
1107;DHT22;540;49.448;8.612;2023-04-03T00:15:39;5.60;86.40
1107;DHT22;540;49.448;8.612;2023-04-03T00:18:07;5.00;86.60
1107;DHT22;540;49.448;8.612;2023-04-03T00:20:36;5.50;86.10
1107;DHT22;540;49.448;8.612;2023-04-03T00:23:05;5.50;84.90
1107;DHT22;540;49.448;8.612;2023-04-03T00:25:33;5.70;84.50
1107;DHT22;540;49.448;8.612;2023-04-03T00:28:02;5.80;84.70
1107;DHT22;540;49.448;8.612;2023-04-03T00:30:30;5.60;85.30
1107;DHT22;540;49.448;8.612;2023-04-03T00:32:58;5.70;85.40
1107;DHT22;540;49.448;8.612;2023-04-03T00:35:28;5.70;87.40
1107;DHT22;540;49.448;8.612;2023-04-03T00:37:57;5.60;86.80
1107;DHT22;540;49.448;8.612;2023-04-03T00:40:26;5.50;87.20
1107;DHT22;540;49.448;8.612;2023-04-03T00:42:57;5.30;86.40
1107;DHT22;540;49.448;8.612;2023-04-03T00:45:35;5.20;86.50
1107;DHT22;540;49.448;8.612;2023-04-03T00:48:06;5.70;85.50
1107;DHT22;540;49.448;8.612;2023-04-03T00:50:36;5.60;86.10
1107;DHT22;540;49.448;8.612;2023-04-03T00:53:07;5.50;87.60
1107;DHT22;540;49.448;8.612;2023-04-03T00:55:38;5.20;88.30
1107;DHT22;540;49.448;8.612;2023-04-03T00:58:06;5.10;87.90
1107;DHT22;540;49.448;8.612;2023-04-03T01:00:37;5.10;90.00
1107;DHT22;540;49.448;8.612;2023-04-03T01:03:05;4.90;90.40
1107;DHT22;540;49.448;8.612;2023-04-03T01:05:33;4.90;91.20
1107;DHT22;540;49.448;8.612;2023-04-03T01:08:01;5.00;91.80
1107;DHT22;540;49.448;8.612;2023-04-03T01:10:30;4.90;91.30
1107;DHT22;540;49.448;8.612;2023-04-03T01:13:00;4.80;91.50
1107;DHT22;540;49.448;8.612;2023-04-03T01:15:28;4.80;92.30
1107;DHT22;540;49.448;8.612;2023-04-03T01:17:59;4.70;92.00
1107;DHT22;540;49.448;8.612;2023-04-03T01:23:45;4.60;93.00
1107;DHT22;540;49.448;8.612;2023-04-03T01:26:17;4.50;93.70
1107;DHT22;540;49.448;8.612;2023-04-03T01:28:45;4.70;94.30
1107;DHT22;540;49.448;8.612;2023-04-03T01:31:20;4.60;94.40
1107;DHT22;540;49.448;8.612;2023-04-03T01:33:51;4.60;93.80
1107;DHT22;540;49.448;8.612;2023-04-03T01:36:20;4.30;92.80
1107;DHT22;540;49.448;8.612;2023-04-03T01:38:48;4.70;93.20
1107;DHT22;540;49.448;8.612;2023-04-03T01:41:16;4.40;93.20
1107;DHT22;540;49.448;8.612;2023-04-03T01:43:44;4.60;93.30
1107;DHT22;540;49.448;8.612;2023-04-03T01:46:12;4.50;93.70
1107;DHT22;540;49.448;8.612;2023-04-03T01:48:40;4.20;93.70
1107;DHT22;540;49.448;8.612;2023-04-03T01:51:10;4.40;94.10
1107;DHT22;540;49.448;8.612;2023-04-03T01:53:37;4.30;94.00
1107;DHT22;540;49.448;8.612;2023-04-03T01:56:06;4.40;94.40
1107;DHT22;540;49.448;8.612;2023-04-03T01:58:34;4.10;94.40
1107;DHT22;540;49.448;8.612;2023-04-03T02:01:02;4.10;94.00
1107;DHT22;540;49.448;8.612;2023-04-03T02:03:30;4.30;94.70
1107;DHT22;540;49.448;8.612;2023-04-03T02:05:58;4.00;94.80
1107;DHT22;540;49.448;8.612;2023-04-03T02:08:27;4.10;95.10
1107;DHT22;540;49.448;8.612;2023-04-03T02:10:55;3.90;95.00
1107;DHT22;540;49.448;8.612;2023-04-03T02:13:23;4.00;94.90
1107;DHT22;540;49.448;8.612;2023-04-03T02:15:51;3.90;95.30
1107;DHT22;540;49.448;8.612;2023-04-03T02:18:19;3.90;95.70
1107;DHT22;540;49.448;8.612;2023-04-03T02:20:47;4.00;96.70
1107;DHT22;540;49.448;8.612;2023-04-03T02:23:15;3.80;96.80
1107;DHT22;540;49.448;8.612;2023-04-03T02:25:44;3.80;97.20
1107;DHT22;540;49.448;8.612;2023-04-03T02:28:12;3.90;97.10
1107;DHT22;540;49.448;8.612;2023-04-03T02:30:39;3.90;96.80
1107;DHT22;540;49.448;8.612;2023-04-03T02:33:07;3.90;97.20
1107;DHT22;540;49.448;8.612;2023-04-03T02:35:35;3.80;97.70
1107;DHT22;540;49.448;8.612;2023-04-03T02:38:03;3.90;98.00
1107;DHT22;540;49.448;8.612;2023-04-03T02:40:31;3.70;98.10
1107;DHT22;540;49.448;8.612;2023-04-03T02:43:00;3.70;98.10
1107;DHT22;540;49.448;8.612;2023-04-03T02:45:28;3.60;98.10
1107;DHT22;540;49.448;8.612;2023-04-03T02:47:56;3.60;97.70
1107;DHT22;540;49.448;8.612;2023-04-03T02:50:23;3.70;97.70
1107;DHT22;540;49.448;8.612;2023-04-03T02:52:51;3.70;98.00
1107;DHT22;540;49.448;8.612;2023-04-03T02:55:19;3.80;98.50
1107;DHT22;540;49.448;8.612;2023-04-03T02:57:47;3.60;98.40
1107;DHT22;540;49.448;8.612;2023-04-03T03:00:16;3.70;98.60
1107;DHT22;540;49.448;8.612;2023-04-03T03:02:44;3.50;98.80
1107;DHT22;540;49.448;8.612;2023-04-03T03:05:12;3.40;99.90
1107;DHT22;540;49.448;8.612;2023-04-03T03:07:40;3.40;99.90
1107;DHT22;540;49.448;8.612;2023-04-03T03:10:08;3.40;99.50
1107;DHT22;540;49.448;8.612;2023-04-03T03:12:36;3.50;99.90
1107;DHT22;540;49.448;8.612;2023-04-03T03:15:04;3.30;99.20
1107;DHT22;540;49.448;8.612;2023-04-03T03:17:34;3.50;99.30
1107;DHT22;540;49.448;8.612;2023-04-03T03:20:02;3.40;99.20
1107;DHT22;540;49.448;8.612;2023-04-03T03:22:30;3.40;99.90
1107;DHT22;540;49.448;8.612;2023-04-03T03:24:58;3.30;99.60
1107;DHT22;540;49.448;8.612;2023-04-03T03:27:27;3.30;99.80
1107;DHT22;540;49.448;8.612;2023-04-03T03:29:55;3.30;99.90
1107;DHT22;540;49.448;8.612;2023-04-03T03:32:22;3.40;99.80
1107;DHT22;540;49.448;8.612;2023-04-03T03:34:51;3.50;99.70
1107;DHT22;540;49.448;8.612;2023-04-03T03:37:19;3.30;99.40
1107;DHT22;540;49.448;8.612;2023-04-03T03:39:47;3.70;99.70
1107;DHT22;540;49.448;8.612;2023-04-03T03:42:15;3.60;99.20
1107;DHT22;540;49.448;8.612;2023-04-03T03:44:42;3.60;99.30
1107;DHT22;540;49.448;8.612;2023-04-03T03:47:10;3.40;98.70
1107;DHT22;540;49.448;8.612;2023-04-03T03:49:38;3.60;99.00
1107;DHT22;540;49.448;8.612;2023-04-03T03:52:08;3.40;99.20
1107;DHT22;540;49.448;8.612;2023-04-03T03:54:37;3.50;99.60
1107;DHT22;540;49.448;8.612;2023-04-03T03:57:05;3.40;98.60
1107;DHT22;540;49.448;8.612;2023-04-03T03:59:33;3.50;98.00
1107;DHT22;540;49.448;8.612;2023-04-03T04:02:01;3.30;97.90
1107;DHT22;540;49.448;8.612;2023-04-03T04:04:29;3.50;98.00
1107;DHT22;540;49.448;8.612;2023-04-03T04:06:56;3.40;97.00
1107;DHT22;540;49.448;8.612;2023-04-03T04:09:25;3.50;97.00
1107;DHT22;540;49.448;8.612;2023-04-03T04:11:53;3.40;97.50
1107;DHT22;540;49.448;8.612;2023-04-03T04:14:21;3.30;97.30
1107;DHT22;540;49.448;8.612;2023-04-03T04:16:49;3.80;97.00
1107;DHT22;540;49.448;8.612;2023-04-03T04:19:17;3.60;96.60
1107;DHT22;540;49.448;8.612;2023-04-03T04:21:45;3.50;96.70
1107;DHT22;540;49.448;8.612;2023-04-03T04:24:13;3.40;96.50
1107;DHT22;540;49.448;8.612;2023-04-03T04:26:42;3.50;97.00
1107;DHT22;540;49.448;8.612;2023-04-03T04:29:10;3.40;96.80
1107;DHT22;540;49.448;8.612;2023-04-03T04:31:38;3.50;97.10
1107;DHT22;540;49.448;8.612;2023-04-03T04:34:06;3.50;97.30
1107;DHT22;540;49.448;8.612;2023-04-03T04:36:33;3.50;97.50
1107;DHT22;540;49.448;8.612;2023-04-03T04:39:01;3.30;97.50
1107;DHT22;540;49.448;8.612;2023-04-03T04:41:29;3.40;98.00
1107;DHT22;540;49.448;8.612;2023-04-03T04:43:58;3.60;97.30
1107;DHT22;540;49.448;8.612;2023-04-03T04:46:26;3.40;97.20
1107;DHT22;540;49.448;8.612;2023-04-03T04:48:54;3.30;96.50
1107;DHT22;540;49.448;8.612;2023-04-03T04:51:22;3.40;97.00
1107;DHT22;540;49.448;8.612;2023-04-03T04:53:50;3.50;97.30
1107;DHT22;540;49.448;8.612;2023-04-03T04:56:20;3.40;97.10
1107;DHT22;540;49.448;8.612;2023-04-03T04:58:48;3.30;97.60
1107;DHT22;540;49.448;8.612;2023-04-03T05:01:17;3.40;97.30
1107;DHT22;540;49.448;8.612;2023-04-03T05:03:45;3.30;96.90
1107;DHT22;540;49.448;8.612;2023-04-03T05:06:14;3.20;96.70
1107;DHT22;540;49.448;8.612;2023-04-03T05:08:41;3.40;97.70
1107;DHT22;540;49.448;8.612;2023-04-03T05:11:09;2.80;96.90
1107;DHT22;540;49.448;8.612;2023-04-03T05:13:37;3.60;96.70
1107;DHT22;540;49.448;8.612;2023-04-03T05:16:05;3.60;96.50
1107;DHT22;540;49.448;8.612;2023-04-03T05:18:34;3.60;96.90
1107;DHT22;540;49.448;8.612;2023-04-03T05:21:02;3.30;96.40
1107;DHT22;540;49.448;8.612;2023-04-03T05:23:31;3.60;96.40
1107;DHT22;540;49.448;8.612;2023-04-03T05:25:58;3.50;96.70
1107;DHT22;540;49.448;8.612;2023-04-03T05:28:26;3.60;96.60
1107;DHT22;540;49.448;8.612;2023-04-03T05:30:54;3.60;96.40
1107;DHT22;540;49.448;8.612;2023-04-03T05:33:23;3.70;96.60
1107;DHT22;540;49.448;8.612;2023-04-03T05:35:52;3.60;96.80
1107;DHT22;540;49.448;8.612;2023-04-03T05:38:20;3.40;97.00
1107;DHT22;540;49.448;8.612;2023-04-03T05:40:48;3.70;97.00
1107;DHT22;540;49.448;8.612;2023-04-03T05:43:16;3.60;96.40
1107;DHT22;540;49.448;8.612;2023-04-03T05:45:44;3.70;96.40
1107;DHT22;540;49.448;8.612;2023-04-03T05:48:12;3.70;96.10
1107;DHT22;540;49.448;8.612;2023-04-03T05:50:41;3.70;96.50
1107;DHT22;540;49.448;8.612;2023-04-03T05:53:16;3.80;96.70
1107;DHT22;540;49.448;8.612;2023-04-03T05:55:45;3.80;96.30
1107;DHT22;540;49.448;8.612;2023-04-03T05:58:13;3.70;96.20
1107;DHT22;540;49.448;8.612;2023-04-03T06:00:41;3.80;96.10
1107;DHT22;540;49.448;8.612;2023-04-03T06:03:09;3.90;96.40
1107;DHT22;540;49.448;8.612;2023-04-03T06:05:37;3.90;95.50
1107;DHT22;540;49.448;8.612;2023-04-03T06:08:06;4.00;96.20
1107;DHT22;540;49.448;8.612;2023-04-03T06:10:36;4.10;95.20
1107;DHT22;540;49.448;8.612;2023-04-03T06:13:05;4.20;95.50
1107;DHT22;540;49.448;8.612;2023-04-03T06:15:33;4.20;95.30
1107;DHT22;540;49.448;8.612;2023-04-03T06:18:01;4.40;95.20
1107;DHT22;540;49.448;8.612;2023-04-03T06:20:29;4.40;95.40
1107;DHT22;540;49.448;8.612;2023-04-03T06:22:57;4.40;96.10
1107;DHT22;540;49.448;8.612;2023-04-03T06:25:25;4.50;96.10
1107;DHT22;540;49.448;8.612;2023-04-03T06:27:54;4.90;95.80
1107;DHT22;540;49.448;8.612;2023-04-03T06:30:22;4.50;95.60
1107;DHT22;540;49.448;8.612;2023-04-03T06:32:50;5.20;95.90
1107;DHT22;540;49.448;8.612;2023-04-03T06:35:18;5.20;95.50
1107;DHT22;540;49.448;8.612;2023-04-03T06:37:47;5.40;95.70
1107;DHT22;540;49.448;8.612;2023-04-03T06:40:19;7.00;94.10
1107;DHT22;540;49.448;8.612;2023-04-03T06:42:48;9.20;86.90
1107;DHT22;540;49.448;8.612;2023-04-03T06:45:17;10.80;74.20
1107;DHT22;540;49.448;8.612;2023-04-03T06:47:45;12.10;67.40
1107;DHT22;540;49.448;8.612;2023-04-03T06:50:13;13.30;62.60
1107;DHT22;540;49.448;8.612;2023-04-03T06:52:41;13.50;58.60
1107;DHT22;540;49.448;8.612;2023-04-03T06:55:09;14.30;56.30
1107;DHT22;540;49.448;8.612;2023-04-03T06:57:37;13.90;54.40
1107;DHT22;540;49.448;8.612;2023-04-03T07:00:06;15.20;53.50
1107;DHT22;540;49.448;8.612;2023-04-03T07:02:36;15.20;51.70
1107;DHT22;540;49.448;8.612;2023-04-03T07:05:05;15.70;50.80
1107;DHT22;540;49.448;8.612;2023-04-03T07:07:33;15.70;49.20
1107;DHT22;540;49.448;8.612;2023-04-03T07:10:01;16.10;48.50
1107;DHT22;540;49.448;8.612;2023-04-03T07:12:29;16.10;47.40
1107;DHT22;540;49.448;8.612;2023-04-03T07:14:57;15.90;47.70
1107;DHT22;540;49.448;8.612;2023-04-03T07:17:25;16.00;47.00
1107;DHT22;540;49.448;8.612;2023-04-03T07:19:54;16.50;47.10
1107;DHT22;540;49.448;8.612;2023-04-03T07:22:22;16.30;46.00
1107;DHT22;540;49.448;8.612;2023-04-03T07:24:51;16.90;45.80
1107;DHT22;540;49.448;8.612;2023-04-03T07:27:18;16.40;44.00
1107;DHT22;540;49.448;8.612;2023-04-03T07:29:46;17.10;44.30
1107;DHT22;540;49.448;8.612;2023-04-03T07:32:15;17.00;43.90
1107;DHT22;540;49.448;8.612;2023-04-03T07:34:44;17.40;42.60
1107;DHT22;540;49.448;8.612;2023-04-03T07:37:13;17.60;42.40
1107;DHT22;540;49.448;8.612;2023-04-03T07:39:43;17.70;42.00
1107;DHT22;540;49.448;8.612;2023-04-03T07:42:11;18.00;41.20
1107;DHT22;540;49.448;8.612;2023-04-03T07:44:39;17.60;39.10
1107;DHT22;540;49.448;8.612;2023-04-03T07:47:07;18.00;39.70
1107;DHT22;540;49.448;8.612;2023-04-03T07:49:35;17.60;39.20
1107;DHT22;540;49.448;8.612;2023-04-03T07:52:06;17.70;38.80
1107;DHT22;540;49.448;8.612;2023-04-03T07:54:37;17.60;38.30
1107;DHT22;540;49.448;8.612;2023-04-03T07:57:04;17.50;38.70
1107;DHT22;540;49.448;8.612;2023-04-03T07:59:33;18.00;38.50
1107;DHT22;540;49.448;8.612;2023-04-03T08:02:01;18.20;36.70
1107;DHT22;540;49.448;8.612;2023-04-03T08:04:33;18.10;36.00
1107;DHT22;540;49.448;8.612;2023-04-03T08:07:02;18.80;35.90
1107;DHT22;540;49.448;8.612;2023-04-03T08:09:32;18.80;34.70
1107;DHT22;540;49.448;8.612;2023-04-03T08:12:04;18.30;34.80
1107;DHT22;540;49.448;8.612;2023-04-03T08:14:34;18.70;35.60
1107;DHT22;540;49.448;8.612;2023-04-03T08:17:03;18.60;35.00
1107;DHT22;540;49.448;8.612;2023-04-03T08:19:33;18.60;34.20
1107;DHT22;540;49.448;8.612;2023-04-03T08:22:03;19.30;33.60
1107;DHT22;540;49.448;8.612;2023-04-03T08:24:33;18.70;32.90
1107;DHT22;540;49.448;8.612;2023-04-03T08:27:08;19.50;32.90
1107;DHT22;540;49.448;8.612;2023-04-03T08:29:38;19.60;32.00
1107;DHT22;540;49.448;8.612;2023-04-03T08:32:08;19.50;31.00
1107;DHT22;540;49.448;8.612;2023-04-03T08:34:38;19.40;32.40
1107;DHT22;540;49.448;8.612;2023-04-03T08:37:08;19.60;31.30
1107;DHT22;540;49.448;8.612;2023-04-03T08:39:38;19.10;31.10
1107;DHT22;540;49.448;8.612;2023-04-03T08:42:16;19.20;32.20
1107;DHT22;540;49.448;8.612;2023-04-03T08:44:54;19.30;32.00
1107;DHT22;540;49.448;8.612;2023-04-03T08:47:33;20.10;31.20
1107;DHT22;540;49.448;8.612;2023-04-03T08:50:07;20.10;30.00
1107;DHT22;540;49.448;8.612;2023-04-03T08:52:42;19.60;30.50
1107;DHT22;540;49.448;8.612;2023-04-03T08:55:22;19.60;30.40
1107;DHT22;540;49.448;8.612;2023-04-03T08:57:58;20.00;30.00
1107;DHT22;540;49.448;8.612;2023-04-03T09:00:29;20.00;29.50
1107;DHT22;540;49.448;8.612;2023-04-03T09:02:58;19.90;29.40
1107;DHT22;540;49.448;8.612;2023-04-03T09:05:33;19.60;30.70
1107;DHT22;540;49.448;8.612;2023-04-03T09:08:12;18.00;29.50
1107;DHT22;540;49.448;8.612;2023-04-03T09:10:42;17.10;30.20
1107;DHT22;540;49.448;8.612;2023-04-03T09:13:18;16.60;30.90
1107;DHT22;540;49.448;8.612;2023-04-03T09:15:48;16.60;31.70
1107;DHT22;540;49.448;8.612;2023-04-03T09:18:19;16.20;33.20
1107;DHT22;540;49.448;8.612;2023-04-03T09:20:55;16.20;34.70
1107;DHT22;540;49.448;8.612;2023-04-03T09:23:28;16.40;34.30
1107;DHT22;540;49.448;8.612;2023-04-03T09:26:01;15.60;33.30
1107;DHT22;540;49.448;8.612;2023-04-03T09:28:35;16.60;33.40
1107;DHT22;540;49.448;8.612;2023-04-03T09:31:19;16.90;32.90
1107;DHT22;540;49.448;8.612;2023-04-03T09:33:49;17.00;31.30
1107;DHT22;540;49.448;8.612;2023-04-03T09:36:42;15.90;31.80
1107;DHT22;540;49.448;8.612;2023-04-03T09:39:12;14.30;34.20
1107;DHT22;540;49.448;8.612;2023-04-03T09:41:41;14.00;36.00
1107;DHT22;540;49.448;8.612;2023-04-03T09:44:21;13.90;36.20
1107;DHT22;540;49.448;8.612;2023-04-03T09:46:49;14.00;36.40
1107;DHT22;540;49.448;8.612;2023-04-03T09:49:18;14.80;36.00
1107;DHT22;540;49.448;8.612;2023-04-03T09:51:46;15.80;34.00
1107;DHT22;540;49.448;8.612;2023-04-03T09:54:35;17.00;33.70
1107;DHT22;540;49.448;8.612;2023-04-03T09:57:09;15.40;31.60
1107;DHT22;540;49.448;8.612;2023-04-03T09:59:44;15.00;33.00
1107;DHT22;540;49.448;8.612;2023-04-03T10:02:30;15.40;33.40
1107;DHT22;540;49.448;8.612;2023-04-03T10:04:59;15.30;33.90
1107;DHT22;540;49.448;8.612;2023-04-03T10:07:32;15.10;34.00
1107;DHT22;540;49.448;8.612;2023-04-03T10:10:14;14.80;35.30
1107;DHT22;540;49.448;8.612;2023-04-03T10:12:43;14.10;35.00
1107;DHT22;540;49.448;8.612;2023-04-03T10:15:14;14.00;36.50
1107;DHT22;540;49.448;8.612;2023-04-03T10:17:53;13.80;36.90
1107;DHT22;540;49.448;8.612;2023-04-03T10:20:29;13.90;36.90
1107;DHT22;540;49.448;8.612;2023-04-03T10:23:11;13.40;37.20
1107;DHT22;540;49.448;8.612;2023-04-03T10:25:46;13.60;39.80
1107;DHT22;540;49.448;8.612;2023-04-03T10:28:20;13.10;38.40
1107;DHT22;540;49.448;8.612;2023-04-03T10:30:58;13.50;38.60
1107;DHT22;540;49.448;8.612;2023-04-03T10:33:39;14.50;37.20
1107;DHT22;540;49.448;8.612;2023-04-03T10:36:19;15.00;34.40
1107;DHT22;540;49.448;8.612;2023-04-03T10:38:58;15.40;32.50
1107;DHT22;540;49.448;8.612;2023-04-03T10:41:34;15.60;32.20
1107;DHT22;540;49.448;8.612;2023-04-03T10:44:14;16.50;33.50
1107;DHT22;540;49.448;8.612;2023-04-03T10:46:47;16.60;30.30
1107;DHT22;540;49.448;8.612;2023-04-03T10:49:31;16.60;30.60
1107;DHT22;540;49.448;8.612;2023-04-03T10:52:11;17.00;31.10
1107;DHT22;540;49.448;8.612;2023-04-03T10:54:43;16.10;32.10
1107;DHT22;540;49.448;8.612;2023-04-03T10:57:13;14.50;33.80
1107;DHT22;540;49.448;8.612;2023-04-03T10:59:44;13.20;35.20
1107;DHT22;540;49.448;8.612;2023-04-03T11:02:22;12.80;36.70
1107;DHT22;540;49.448;8.612;2023-04-03T11:04:58;12.40;38.40
1107;DHT22;540;49.448;8.612;2023-04-03T11:07:29;12.60;40.10
1107;DHT22;540;49.448;8.612;2023-04-03T11:10:02;13.20;38.90
1107;DHT22;540;49.448;8.612;2023-04-03T11:12:38;13.10;38.70
1107;DHT22;540;49.448;8.612;2023-04-03T11:15:12;12.10;38.00
1107;DHT22;540;49.448;8.612;2023-04-03T11:17:46;12.10;39.90
1107;DHT22;540;49.448;8.612;2023-04-03T11:20:20;12.10;39.60
1107;DHT22;540;49.448;8.612;2023-04-03T11:22:58;12.10;39.50
1107;DHT22;540;49.448;8.612;2023-04-03T11:25:30;12.30;39.40
1107;DHT22;540;49.448;8.612;2023-04-03T11:28:01;11.90;39.30
1107;DHT22;540;49.448;8.612;2023-04-03T11:30:33;12.60;40.70
1107;DHT22;540;49.448;8.612;2023-04-03T11:33:21;13.50;39.40
1107;DHT22;540;49.448;8.612;2023-04-03T11:35:53;13.40;38.60
1107;DHT22;540;49.448;8.612;2023-04-03T11:38:25;13.00;38.30
1107;DHT22;540;49.448;8.612;2023-04-03T11:40:56;11.50;38.30
1107;DHT22;540;49.448;8.612;2023-04-03T11:43:27;11.90;40.40
1107;DHT22;540;49.448;8.612;2023-04-03T11:45:58;11.50;40.00
1107;DHT22;540;49.448;8.612;2023-04-03T11:48:49;11.50;40.10
1107;DHT22;540;49.448;8.612;2023-04-03T11:51:41;11.70;39.90
1107;DHT22;540;49.448;8.612;2023-04-03T11:54:44;11.40;41.00
1107;DHT22;540;49.448;8.612;2023-04-03T11:57:44;11.20;40.10
1107;DHT22;540;49.448;8.612;2023-04-03T12:00:48;11.60;41.80
1107;DHT22;540;49.448;8.612;2023-04-03T12:06:43;10.50;43.00
1107;DHT22;540;49.448;8.612;2023-04-03T12:09:27;10.30;42.70
1107;DHT22;540;49.448;8.612;2023-04-03T12:11:56;10.30;42.50
1107;DHT22;540;49.448;8.612;2023-04-03T12:14:25;10.40;44.20
1107;DHT22;540;49.448;8.612;2023-04-03T12:16:54;10.80;44.40
1107;DHT22;540;49.448;8.612;2023-04-03T12:19:31;10.70;44.00
1107;DHT22;540;49.448;8.612;2023-04-03T12:22:17;10.30;43.70
1107;DHT22;540;49.448;8.612;2023-04-03T12:24:48;10.30;45.00
1107;DHT22;540;49.448;8.612;2023-04-03T12:27:32;9.90;45.90
1107;DHT22;540;49.448;8.612;2023-04-03T12:30:10;10.10;44.50
1107;DHT22;540;49.448;8.612;2023-04-03T12:32:51;11.00;41.90
1107;DHT22;540;49.448;8.612;2023-04-03T12:35:44;12.30;39.10
1107;DHT22;540;49.448;8.612;2023-04-03T12:41:32;15.00;33.90
1107;DHT22;540;49.448;8.612;2023-04-03T12:44:27;14.10;33.70
1107;DHT22;540;49.448;8.612;2023-04-03T12:47:01;14.00;34.70
1107;DHT22;540;49.448;8.612;2023-04-03T12:49:35;13.90;35.50
1107;DHT22;540;49.448;8.612;2023-04-03T12:52:06;12.90;36.50
1107;DHT22;540;49.448;8.612;2023-04-03T12:54:45;12.90;37.90
1107;DHT22;540;49.448;8.612;2023-04-03T12:57:17;13.20;39.30
1107;DHT22;540;49.448;8.612;2023-04-03T12:59:46;13.00;39.10
1107;DHT22;540;49.448;8.612;2023-04-03T13:02:21;12.90;40.10
1107;DHT22;540;49.448;8.612;2023-04-03T13:04:50;12.90;40.20
1107;DHT22;540;49.448;8.612;2023-04-03T13:07:23;12.60;38.90
1107;DHT22;540;49.448;8.612;2023-04-03T13:10:01;12.50;40.30
1107;DHT22;540;49.448;8.612;2023-04-03T13:12:30;12.30;40.60
1107;DHT22;540;49.448;8.612;2023-04-03T13:15:00;12.20;40.50
1107;DHT22;540;49.448;8.612;2023-04-03T13:17:29;12.60;40.30
1107;DHT22;540;49.448;8.612;2023-04-03T13:20:11;12.40;39.80
1107;DHT22;540;49.448;8.612;2023-04-03T13:22:45;12.80;40.30
1107;DHT22;540;49.448;8.612;2023-04-03T13:25:17;12.20;40.40
1107;DHT22;540;49.448;8.612;2023-04-03T13:27:46;12.00;40.30
1107;DHT22;540;49.448;8.612;2023-04-03T13:30:24;12.10;40.00
1107;DHT22;540;49.448;8.612;2023-04-03T13:32:54;11.90;41.10
1107;DHT22;540;49.448;8.612;2023-04-03T13:35:28;11.80;42.00
1107;DHT22;540;49.448;8.612;2023-04-03T13:37:58;12.00;41.90
1107;DHT22;540;49.448;8.612;2023-04-03T13:40:27;12.70;41.40
1107;DHT22;540;49.448;8.612;2023-04-03T13:43:14;13.00;41.40
1107;DHT22;540;49.448;8.612;2023-04-03T13:45:55;13.00;40.30
1107;DHT22;540;49.448;8.612;2023-04-03T13:48:24;13.10;40.20
1107;DHT22;540;49.448;8.612;2023-04-03T13:50:58;12.40;39.30
1107;DHT22;540;49.448;8.612;2023-04-03T13:53:29;12.60;39.10
1107;DHT22;540;49.448;8.612;2023-04-03T13:56:06;12.60;39.80
1107;DHT22;540;49.448;8.612;2023-04-03T13:58:35;12.40;39.60
1107;DHT22;540;49.448;8.612;2023-04-03T14:01:10;12.30;39.60
1107;DHT22;540;49.448;8.612;2023-04-03T14:03:44;12.40;39.70
1107;DHT22;540;49.448;8.612;2023-04-03T14:06:15;12.50;39.90
1107;DHT22;540;49.448;8.612;2023-04-03T14:08:43;12.50;38.00
1107;DHT22;540;49.448;8.612;2023-04-03T14:11:15;12.10;37.20
1107;DHT22;540;49.448;8.612;2023-04-03T14:13:44;12.30;38.60
1107;DHT22;540;49.448;8.612;2023-04-03T14:16:14;12.30;37.60
1107;DHT22;540;49.448;8.612;2023-04-03T14:18:43;12.20;36.80
1107;DHT22;540;49.448;8.612;2023-04-03T14:21:13;12.30;37.30
1107;DHT22;540;49.448;8.612;2023-04-03T14:23:41;12.60;38.30
1107;DHT22;540;49.448;8.612;2023-04-03T14:26:12;12.50;37.90
1107;DHT22;540;49.448;8.612;2023-04-03T14:28:41;12.70;36.70
1107;DHT22;540;49.448;8.612;2023-04-03T14:31:11;12.50;36.70
1107;DHT22;540;49.448;8.612;2023-04-03T14:33:40;12.70;36.50
1107;DHT22;540;49.448;8.612;2023-04-03T14:36:13;12.70;35.00
1107;DHT22;540;49.448;8.612;2023-04-03T14:38:42;12.50;35.60
1107;DHT22;540;49.448;8.612;2023-04-03T14:41:12;12.50;36.10
1107;DHT22;540;49.448;8.612;2023-04-03T14:43:45;12.50;36.70
1107;DHT22;540;49.448;8.612;2023-04-03T14:46:15;12.60;37.60
1107;DHT22;540;49.448;8.612;2023-04-03T14:48:44;12.00;38.20
1107;DHT22;540;49.448;8.612;2023-04-03T14:51:14;11.60;37.90
1107;DHT22;540;49.448;8.612;2023-04-03T14:53:43;11.70;37.60
1107;DHT22;540;49.448;8.612;2023-04-03T14:56:14;11.60;36.60
1107;DHT22;540;49.448;8.612;2023-04-03T14:58:44;11.70;36.50
1107;DHT22;540;49.448;8.612;2023-04-03T15:01:16;11.70;36.10
1107;DHT22;540;49.448;8.612;2023-04-03T15:03:44;11.50;35.60
1107;DHT22;540;49.448;8.612;2023-04-03T15:06:13;11.40;36.00
1107;DHT22;540;49.448;8.612;2023-04-03T15:08:42;11.40;37.10
1107;DHT22;540;49.448;8.612;2023-04-03T15:11:11;11.40;38.50
1107;DHT22;540;49.448;8.612;2023-04-03T15:13:39;11.70;37.70
1107;DHT22;540;49.448;8.612;2023-04-03T15:16:14;11.50;36.50
1107;DHT22;540;49.448;8.612;2023-04-03T15:18:44;11.40;38.60
1107;DHT22;540;49.448;8.612;2023-04-03T15:21:12;11.40;37.90
1107;DHT22;540;49.448;8.612;2023-04-03T15:23:40;11.00;37.90
1107;DHT22;540;49.448;8.612;2023-04-03T15:26:09;10.80;37.20
1107;DHT22;540;49.448;8.612;2023-04-03T15:28:38;10.60;37.90
1107;DHT22;540;49.448;8.612;2023-04-03T15:31:07;10.70;39.50
1107;DHT22;540;49.448;8.612;2023-04-03T15:33:37;11.00;39.40
1107;DHT22;540;49.448;8.612;2023-04-03T15:36:05;10.80;38.00
1107;DHT22;540;49.448;8.612;2023-04-03T15:38:53;10.90;37.90
1107;DHT22;540;49.448;8.612;2023-04-03T15:41:21;11.10;37.80
1107;DHT22;540;49.448;8.612;2023-04-03T15:43:49;10.90;37.30
1107;DHT22;540;49.448;8.612;2023-04-03T15:46:16;10.60;37.30
1107;DHT22;540;49.448;8.612;2023-04-03T15:48:46;10.80;37.20
1107;DHT22;540;49.448;8.612;2023-04-03T15:51:14;10.90;36.30
1107;DHT22;540;49.448;8.612;2023-04-03T15:53:41;11.00;35.00
1107;DHT22;540;49.448;8.612;2023-04-03T15:56:09;10.80;35.20
1107;DHT22;540;49.448;8.612;2023-04-03T15:58:38;10.60;35.60
1107;DHT22;540;49.448;8.612;2023-04-03T16:01:08;11.10;36.30
1107;DHT22;540;49.448;8.612;2023-04-03T16:03:36;11.10;38.00
1107;DHT22;540;49.448;8.612;2023-04-03T16:06:06;10.90;38.20
1107;DHT22;540;49.448;8.612;2023-04-03T16:08:34;11.10;38.20
1107;DHT22;540;49.448;8.612;2023-04-03T16:11:03;11.00;37.50
1107;DHT22;540;49.448;8.612;2023-04-03T16:13:31;11.10;37.30
1107;DHT22;540;49.448;8.612;2023-04-03T16:16:02;10.70;37.50
1107;DHT22;540;49.448;8.612;2023-04-03T16:18:30;10.70;38.30
1107;DHT22;540;49.448;8.612;2023-04-03T16:20:58;10.80;37.80
1107;DHT22;540;49.448;8.612;2023-04-03T16:23:27;10.50;37.80
1107;DHT22;540;49.448;8.612;2023-04-03T16:25:56;10.20;38.10
1107;DHT22;540;49.448;8.612;2023-04-03T16:28:23;10.30;37.60
1107;DHT22;540;49.448;8.612;2023-04-03T16:30:51;10.20;37.60
1107;DHT22;540;49.448;8.612;2023-04-03T16:33:19;10.10;36.80
1107;DHT22;540;49.448;8.612;2023-04-03T16:35:48;9.90;38.90
1107;DHT22;540;49.448;8.612;2023-04-03T16:38:16;10.10;38.10
1107;DHT22;540;49.448;8.612;2023-04-03T16:40:46;10.00;38.60
1107;DHT22;540;49.448;8.612;2023-04-03T16:43:14;10.20;39.70
1107;DHT22;540;49.448;8.612;2023-04-03T16:45:42;10.20;40.50
1107;DHT22;540;49.448;8.612;2023-04-03T16:48:10;9.90;40.60
1107;DHT22;540;49.448;8.612;2023-04-03T16:50:38;10.00;39.90
1107;DHT22;540;49.448;8.612;2023-04-03T16:53:06;9.70;39.40
1107;DHT22;540;49.448;8.612;2023-04-03T16:55:35;9.60;39.30
1107;DHT22;540;49.448;8.612;2023-04-03T16:58:05;9.60;39.20